METAR

METAR LDZA 182000Z 04013KT 360V070 9999 -SN NSC M02/M06 Q1034 R05/19//95 NOSIG =
METAR LDSP 182000Z 04017G28KT CAVOK 06/M07 Q1018 NOSIG=
METAR LDDU 182000Z 05016G26KT 020V080 9999 -RA FEW060 09/M03 Q1015 TEMPO 02025G35KT =
METAR LDZD 182000Z 06017G31KT 350V110 9999 FEW050 04/M06 Q1019 TEMPO 05025G35KT =
METAR LDPL 182000Z 06025G37KT CAVOK 02/M06 Q1022=
METAR LDOS 182000Z 03015KT 9999 SCT015 OVC030 M02/M04 Q1033
R99/29//95=

TAF

TAF LDZA 181725Z 1818/1918 04013KT 9999 SCT045
                TXM01/1910Z TNM05/1905Z
           BECMG 1911/1913 04008KT=
TAF LDSP 181725Z 1818/1918 06018KT CAVOK
                 TX07/1912Z TN03/1901Z
           TEMPO 1818/1910 04020G30KT
    PROB40 TEMPO 1818/1821 05025G35KT
           BECMG 1914/1916 05008KT=
TAF LDDU 181725Z 1818/1918 03020KT 9999 SCT045
                 TX09/1912Z TN04/1905Z
           TEMPO 1818/1909 02025G35KT
    PROB40 TEMPO 1822/1901 4000 RA
           BECMG 1910/1912 02010KT
    PROB30 TEMPO 1912/1916 12008KT=
TAF LDZD 181725Z 1818/1918 06015KT 9999 SCT050
                 TX05/1912Z TN01/1906Z
           TEMPO 1818/1908 06020G30KT
    PROB40 TEMPO 1818/1821 05025G35KT=
TAF LDPL 181725Z 1818/1918 06025G35KT CAVOK
                 TX04/1911Z TN01/1905Z
           TEMPO 1818/1824 06030G45KT
           TEMPO 1903/1910 06025KT
           BECMG 1910/1912 06020KT
    PROB40 TEMPO 1910/1918 06020G30KT=
TAF LDOS 181725Z 1818/1918 04006KT 9999 SCT010 BKN030
                TXM01/1912Z TNM06/1905Z
           TEMPO 1818/1822 3000 -SN BR BKN010 OVC025=

SIGMET

LDZO SIGMET 5 VALID 181800/182200 LDZA-
LDZO ZAGREB FIR SEV TURB FCST WI N4539 E01436 - N4233 E01827 - N4212
E01809 - N4457 E01334 - N4533 E01323 - N4539 E01436 SFC/FL060 STNR
NC=

AIRMET

LDZO AIRMET 19 VALID 181800/182200 LDZA-
LDZO ZAGREB FIR MOD MTW OBS WI N4533 E01519 - N4351 E01641 - N4330
E01431 - N4430 E01320 - N4510 E01259 - N4533 E01519 ABV FL020 STNR
NC=
LDZO AIRMET 20 VALID 181800/182200 LDZA-
LDZO ZAGREB FIR MT OBSC OBS WI N4538 E01436 - N4631 E01623 - N4533
E01811 - N4255 E01735 - N4434 E01505 - N4538 E01436 ABV FL020 STNR
NC=
LDZO AIRMET 21 VALID 181800/182200 LDZA-
LDZO ZAGREB FIR MOD ICE FCST WI N4630 E01623 - N4554 E01851 - N4511
E01927 - N4341 E01654 - N4412 E01530 - N4529 E01407 - N4630 E01623
FL020/070 STNR NC=
LDZO AIRMET 22 VALID 181800/182200 LDZA-
LDZO ZAGREB FIR MOD ICE FCST WI N4331 E01430 - N4412 E01530 - N4341
E01654 - N4225 E01830 - N4127 E01818 - N4220 E01615 - N4331 E01430
ABV FL030 STNR NC=

Ukoliko se brzina i smjer vjetra ne mogu odrediti zbog privremenog kvara sustava/indikatora,
informacija o vjetru u METAR izvješću bit će prikazana kao "/////KT".

 

Disclaimer

 

In case of temporary system/sensor failure, wind speed and direction data will be represented as "/////KT" in METAR report.